Time;durP1;ratioP1;P1;durP2;ratioP2;P2;SDS_P1;SDS_P2;PMS_P1;PMS_P2;Temp;Humidity;BMP_temperature;BMP_pressure;BME280_temperature;BME280_humidity;BME280_pressure;Samples;Min_cycle;Max_cycle;Signal;HPM_P1;HPM_P2
2022/06/14 00:03:29;;;;;;;7.55;3.83;;;;;;;11.12;78.41;97926.38;5066360;28;20583;-65
2022/06/14 00:05:58;;;;;;;5.57;3.20;;;;;;;11.05;78.71;97927.38;5066593;28;20044;-65
2022/06/14 00:08:26;;;;;;;8.60;3.75;;;;;;;10.99;79.00;97924.81;5066212;28;20056;-66
2022/06/14 00:10:55;;;;;;;7.88;3.90;;;;;;;10.95;78.89;97929.06;5067360;28;20037;-65
2022/06/14 00:13:23;;;;;;;6.22;3.40;;;;;;;11.01;79.16;97928.91;5066382;28;20047;-66
2022/06/14 00:15:51;;;;;;;7.63;3.95;;;;;;;11.09;78.41;97929.59;5066740;28;20105;-65
2022/06/14 00:18:18;;;;;;;6.10;3.70;;;;;;;11.11;78.46;97920.16;5066441;28;20447;-66
2022/06/14 00:20:46;;;;;;;8.00;3.97;;;;;;;11.09;78.62;97914.16;5065964;28;20049;-65
2022/06/14 00:23:16;;;;;;;6.75;4.15;;;;;;;10.92;78.89;97919.53;5066734;28;20415;-65
2022/06/14 00:25:46;;;;;;;6.38;3.47;;;;;;;10.87;78.87;97925.66;5066099;28;20090;-65
2022/06/14 00:28:14;;;;;;;7.70;3.45;;;;;;;10.89;79.48;97915.41;5066767;28;20044;-65
2022/06/14 00:30:44;;;;;;;7.32;4.07;;;;;;;10.90;79.58;97922.47;5075119;28;20101;-66
2022/06/14 00:33:10;;;;;;;6.70;3.35;;;;;;;11.03;78.87;97923.25;5087167;28;20044;-65
2022/06/14 00:35:37;;;;;;;6.65;3.58;;;;;;;11.14;78.42;97924.28;5084096;28;20473;-65
2022/06/14 00:38:04;;;;;;;6.45;3.20;;;;;;;11.15;78.08;97924.03;5065914;28;20105;-66
2022/06/14 00:40:34;;;;;;;7.15;3.88;;;;;;;10.99;78.70;97914.75;5066583;28;20458;-65
2022/06/14 00:43:02;;;;;;;8.40;3.60;;;;;;;10.79;79.54;97920.59;5065993;28;20503;-65
2022/06/14 00:45:29;;;;;;;8.95;3.95;;;;;;;10.72;80.24;97919.94;5066245;28;20044;-65
2022/06/14 00:48:00;;;;;;;10.35;4.75;;;;;;;10.67;80.17;97923.34;5065729;28;20048;-66
2022/06/14 00:50:34;;;;;;;7.35;4.00;;;;;;;10.60;80.55;97914.53;5066120;28;20045;-65
2022/06/14 00:53:22;;;;;;;8.40;4.47;;;;;;;10.64;80.41;97911.13;5066568;28;20530;-65
2022/06/14 00:56:04;;;;;;;7.82;4.57;;;;;;;10.75;79.76;97914.84;5065994;28;20045;-65
2022/06/14 00:58:36;;;;;;;7.50;3.90;;;;;;;10.67;80.33;97912.53;5066032;28;20044;-66
2022/06/14 01:01:19;;;;;;;9.82;4.43;;;;;;;10.68;80.12;97916.06;5065626;28;20050;-65
2022/06/14 01:03:53;;;;;;;7.60;4.32;;;;;;;10.61;80.66;97908.06;5066362;28;20109;-65
2022/06/14 01:06:45;;;;;;;7.47;3.83;;;;;;;10.61;80.36;97906.16;5066583;28;20067;-65
2022/06/14 01:09:21;;;;;;;6.15;3.80;;;;;;;10.50;80.85;97907.00;5066359;28;20052;-65
2022/06/14 01:11:53;;;;;;;8.00;3.88;;;;;;;10.48;81.47;97906.44;5066701;28;20049;-65
2022/06/14 01:14:32;;;;;;;7.03;3.60;;;;;;;10.53;80.95;97899.25;5066291;28;20040;-66
2022/06/14 01:16:59;;;;;;;9.98;4.15;;;;;;;10.54;80.88;97906.31;5065740;28;20450;-66
2022/06/14 01:19:26;;;;;;;9.35;4.00;;;;;;;10.59;80.21;97908.31;5066248;28;20044;-65
2022/06/14 01:22:02;;;;;;;10.55;4.05;;;;;;;10.56;80.31;97905.25;5065867;28;20048;-66
2022/06/14 01:24:30;;;;;;;9.20;4.07;;;;;;;10.43;81.01;97900.88;5065831;28;20101;-65
2022/06/14 01:26:59;;;;;;;10.43;4.05;;;;;;;10.48;80.57;97896.44;5066166;28;20051;-65
2022/06/14 01:29:27;;;;;;;7.28;3.90;;;;;;;10.56;80.17;97899.81;5065792;28;20052;-66
2022/06/14 01:32:00;;;;;;;8.45;4.03;;;;;;;10.51;80.38;97897.84;5084904;28;20040;-65
2022/06/14 01:34:30;;;;;;;8.20;4.05;;;;;;;10.36;81.21;97892.91;5073286;28;20397;-65
2022/06/14 01:37:03;;;;;;;8.90;3.80;;;;;;;10.20;81.90;97889.84;5058996;28;20094;-66
2022/06/14 01:39:30;;;;;;;10.40;4.07;;;;;;;10.17;81.88;97898.44;5066060;28;20503;-65
2022/06/14 01:42:18;;;;;;;10.20;4.22;;;;;;;10.10;82.13;97885.03;5063939;28;20097;-65
2022/06/14 01:45:03;;;;;;;8.75;4.18;;;;;;;10.15;81.85;97900.56;5065227;28;20044;-65
2022/06/14 01:47:53;;;;;;;9.65;4.10;;;;;;;10.11;82.07;97899.38;5067680;28;20048;-65
2022/06/14 01:53:29;;;;;;;8.52;3.80;;;;;;;9.95;82.37;97898.22;5069377;28;20055;-65
2022/06/14 01:56:21;;;;;;;8.10;4.03;;;;;;;9.95;82.61;97899.03;5068912;28;20059;-66
2022/06/14 01:58:53;;;;;;;8.60;4.63;;;;;;;9.95;82.59;97896.31;5069060;28;20466;-65
2022/06/14 02:01:40;;;;;;;5.82;3.88;;;;;;;9.96;82.02;97902.56;5067789;28;20067;-65
2022/06/14 02:07:14;;;;;;;6.05;4.05;;;;;;;9.76;83.34;97901.84;5068484;28;20049;-65
2022/06/14 02:10:00;;;;;;;6.25;3.65;;;;;;;9.59;84.05;97898.19;5068582;28;20392;-65
2022/06/14 02:12:45;;;;;;;8.00;4.70;;;;;;;9.56;84.08;97896.75;5067930;28;20044;-65
2022/06/14 02:15:17;;;;;;;7.93;4.25;;;;;;;9.50;84.35;97886.88;5068361;28;20681;-66
2022/06/14 02:18:04;;;;;;;7.93;4.25;;;;;;;9.52;84.26;97881.22;5068726;28;20044;-65
2022/06/14 02:20:38;;;;;;;8.98;4.50;;;;;;;9.52;84.17;97881.22;5068553;28;20048;-65
2022/06/14 02:23:08;;;;;;;11.40;4.68;;;;;;;9.41;84.40;97883.69;5069020;28;20337;-66
2022/06/14 02:25:45;;;;;;;8.32;4.03;;;;;;;9.37;85.03;97882.50;5068230;28;20556;-65
2022/06/14 02:28:43;;;;;;;7.88;4.03;;;;;;;9.39;84.30;97888.50;5068355;28;20130;-65
2022/06/14 02:31:17;;;;;;;8.45;4.03;;;;;;;9.52;83.13;97881.22;5081531;28;20055;-65
2022/06/14 02:33:56;;;;;;;6.85;4.50;;;;;;;9.15;85.45;97891.13;5088882;28;20091;-66
2022/06/14 02:36:31;;;;;;;7.97;4.68;;;;;;;9.13;85.73;97892.44;5077711;28;20427;-65
2022/06/14 02:39:07;;;;;;;7.75;3.95;;;;;;;9.18;85.01;97893.38;5068452;28;20693;-65
2022/06/14 02:41:45;;;;;;;7.68;4.68;;;;;;;9.15;85.33;97891.13;5068865;28;20036;-65
2022/06/14 02:44:19;;;;;;;7.25;4.47;;;;;;;9.15;85.26;97893.84;5068077;28;20643;-65
2022/06/14 02:46:56;;;;;;;9.40;4.63;;;;;;;9.02;85.62;97894.84;5068011;28;20194;-65
2022/06/14 02:49:29;;;;;;;8.60;4.40;;;;;;;8.99;86.00;97889.88;5068178;28;20504;-66
2022/06/14 02:52:04;;;;;;;9.48;4.80;;;;;;;8.97;85.86;97889.31;5067711;28;20077;-65
2022/06/14 02:54:38;;;;;;;12.68;4.95;;;;;;;8.99;86.09;97887.19;5066720;28;20040;-65
2022/06/14 02:57:09;;;;;;;9.13;5.03;;;;;;;9.00;85.44;97890.72;5067800;28;20044;-65
2022/06/14 02:59:44;;;;;;;8.80;4.43;;;;;;;8.98;85.74;97886.38;5067827;28;20048;-65
2022/06/14 03:02:17;;;;;;;10.52;4.40;;;;;;;8.97;86.04;97892.84;5067656;28;20051;-65
2022/06/14 03:04:51;;;;;;;8.07;4.85;;;;;;;9.02;85.58;97891.31;5067860;28;20037;-65
2022/06/14 03:07:23;;;;;;;8.45;4.22;;;;;;;9.14;84.89;97891.38;5067249;28;20048;-65
2022/06/14 03:09:50;;;;;;;10.40;4.20;;;;;;;9.20;84.33;97891.28;5068070;28;20055;-65
2022/06/14 03:12:30;;;;;;;8.43;4.13;;;;;;;9.20;84.27;97888.56;5067556;28;20040;-65
2022/06/14 03:15:06;;;;;;;9.25;4.25;;;;;;;9.11;84.82;97879.16;5065727;28;20056;-65
2022/06/14 03:18:10;;;;;;;8.10;4.50;;;;;;;9.08;84.57;97890.41;5065527;28;20407;-65
2022/06/14 03:20:38;;;;;;;11.07;4.47;;;;;;;9.01;85.19;97887.78;5064526;28;20032;-65
2022/06/14 03:23:23;;;;;;;7.53;4.05;;;;;;;9.06;84.64;97892.50;5065188;28;20055;-66
2022/06/14 03:26:03;;;;;;;9.70;4.70;;;;;;;9.05;84.95;97886.28;5065390;28;20037;-65
2022/06/14 03:28:41;;;;;;;8.45;4.18;;;;;;;9.04;84.61;97884.66;5065383;28;20036;-65
2022/06/14 03:31:14;;;;;;;6.75;3.90;;;;;;;9.03;84.47;97885.69;5057467;28;20040;-65
2022/06/14 03:33:47;;;;;;;9.90;5.20;;;;;;;8.83;85.67;97883.25;5065312;28;20055;-66
2022/06/14 03:36:15;;;;;;;12.18;4.72;;;;;;;8.77;85.86;97881.47;5063585;28;20512;-65
2022/06/14 03:38:55;;;;;;;8.63;4.78;;;;;;;8.74;86.02;97884.63;5067022;28;20040;-65
2022/06/14 03:41:26;;;;;;;6.72;4.50;;;;;;;8.77;85.90;97887.69;5067167;28;20063;-65
2022/06/14 03:43:57;;;;;;;12.82;5.18;;;;;;;8.77;86.30;97890.38;5067416;28;20045;-65
2022/06/14 03:46:37;;;;;;;9.57;4.97;;;;;;;8.89;85.63;97887.75;5066810;28;20056;-65
2022/06/14 03:49:09;;;;;;;7.57;4.90;;;;;;;8.89;85.75;97885.06;5067463;28;20277;-65
2022/06/14 03:52:01;;;;;;;6.88;4.25;;;;;;;8.92;85.52;97889.16;5066984;28;20063;-66
2022/06/14 03:55:01;;;;;;;10.95;4.57;;;;;;;8.90;85.71;97885.84;5067319;28;20032;-65
2022/06/14 03:57:46;;;;;;;5.82;4.13;;;;;;;8.98;85.58;97888.25;5066396;28;20109;-65
2022/06/14 04:00:47;;;;;;;7.88;4.97;;;;;;;9.03;84.77;97882.16;5067008;28;20767;-67
2022/06/14 04:03:20;;;;;;;6.57;4.25;;;;;;;9.04;85.13;97886.50;5067113;28;20040;-67
2022/06/14 04:05:58;;;;;;;9.10;4.10;;;;;;;9.19;84.57;97877.97;5066654;28;20453;-64
2022/06/14 04:09:01;;;;;;;8.05;4.00;;;;;;;9.36;83.84;97873.56;5067242;28;20442;-67
2022/06/14 04:11:45;;;;;;;8.63;4.43;;;;;;;9.30;83.57;97873.66;5065834;28;20201;-65
2022/06/14 04:14:50;;;;;;;8.10;4.40;;;;;;;9.30;83.87;97876.38;5066837;28;20113;-65
2022/06/14 04:17:24;;;;;;;8.70;4.57;;;;;;;9.21;84.26;97881.25;5065663;28;20262;-65
2022/06/14 04:20:06;;;;;;;6.78;4.32;;;;;;;9.23;84.47;97879.19;5066680;28;20507;-64
2022/06/14 04:22:54;;;;;;;11.13;4.45;;;;;;;9.29;84.57;97878.22;5066510;28;20044;-65
2022/06/14 04:25:36;;;;;;;6.90;4.32;;;;;;;9.39;83.90;97871.47;5066433;28;20033;-65
2022/06/14 04:28:24;;;;;;;9.00;4.38;;;;;;;9.44;83.80;97874.28;5066031;28;20535;-65
2022/06/14 04:31:02;;;;;;;10.52;4.40;;;;;;;9.53;83.77;97881.00;5076715;28;20090;-65
2022/06/14 04:33:39;;;;;;;10.32;5.15;;;;;;;9.67;83.32;97880.78;5086072;28;20071;-64
2022/06/14 04:36:11;;;;;;;8.95;4.68;;;;;;;9.70;83.00;97881.13;5079049;28;20487;-67
2022/06/14 04:38:46;;;;;;;10.13;4.43;;;;;;;9.86;82.85;97885.03;5066181;28;20449;-67
2022/06/14 04:41:19;;;;;;;7.28;4.10;;;;;;;9.96;82.67;97886.34;5066656;28;20040;-68
2022/06/14 04:43:54;;;;;;;8.63;4.40;;;;;;;10.04;82.24;97875.16;5066690;28;20044;-65
2022/06/14 04:46:37;;;;;;;5.93;3.85;;;;;;;10.18;81.77;97886.56;5064300;28;20047;-65
2022/06/14 04:49:12;;;;;;;10.63;4.50;;;;;;;10.30;81.55;97883.00;5064415;28;20123;-65
2022/06/14 04:51:44;;;;;;;9.70;4.43;;;;;;;10.34;81.05;97879.59;5063362;28;20530;-65
2022/06/14 04:54:15;;;;;;;;;;;;;;;10.44;81.01;97876.31;5051585;28;20048;-65
2022/06/14 04:56:57;;;;;;;9.47;4.40;;;;;;;10.59;80.73;97875.81;5057825;28;19985;-66
2022/06/14 04:59:37;;;;;;;8.90;4.28;;;;;;;10.74;80.54;97880.72;5064191;28;20290;-65
2022/06/14 05:02:10;;;;;;;8.98;4.20;;;;;;;10.82;79.88;97870.53;5064234;28;20051;-64
2022/06/14 05:04:44;;;;;;;9.20;4.45;;;;;;;10.94;79.65;97874.03;5064309;28;20041;-64
2022/06/14 05:07:30;;;;;;;8.68;4.32;;;;;;;11.15;79.08;97877.97;5060049;28;20059;-65
2022/06/14 05:10:26;;;;;;;7.30;4.20;;;;;;;11.29;78.92;97870.34;5063838;28;20044;-65
2022/06/14 05:13:12;;;;;;;10.48;4.32;;;;;;;11.45;78.83;97866.00;5066101;28;20041;-64
2022/06/14 05:15:50;;;;;;;7.40;4.25;;;;;;;11.63;78.79;97872.25;5066612;28;20033;-65
2022/06/14 05:18:49;;;;;;;6.97;4.38;;;;;;;11.78;78.80;97874.41;5065814;28;20043;-65
2022/06/14 05:21:33;;;;;;;9.85;3.83;;;;;;;11.89;78.72;97869.09;5066091;28;20057;-65
2022/06/14 05:24:01;;;;;;;8.93;4.05;;;;;;;12.13;77.77;97872.50;5069609;28;20048;-65
2022/06/14 05:26:37;;;;;;;8.02;4.10;;;;;;;12.25;77.31;97875.09;5069378;28;20516;-65
2022/06/14 05:29:23;;;;;;;10.65;4.30;;;;;;;12.43;77.44;97870.44;5069711;28;20040;-65
2022/06/14 05:32:12;;;;;;;8.15;3.65;;;;;;;12.53;77.26;97872.47;5087873;28;20044;-65
2022/06/14 05:35:09;;;;;;;6.53;3.28;;;;;;;12.63;75.44;97869.06;5090013;28;20455;-65
2022/06/14 05:37:51;;;;;;;8.95;3.10;;;;;;;12.73;72.42;97878.16;5049573;28;20051;-64
2022/06/14 05:40:34;;;;;;;5.90;3.10;;;;;;;13.00;67.90;97869.22;5049734;28;20055;-65
2022/06/14 05:43:15;;;;;;;7.38;3.35;;;;;;;13.24;65.35;97873.53;5049298;28;20041;-65
2022/06/14 05:45:55;;;;;;;8.43;3.30;;;;;;;13.42;65.26;97868.78;5049069;28;20044;-65
2022/06/14 05:48:30;;;;;;;6.70;3.05;;;;;;;13.53;65.13;97868.63;5049308;28;20560;-65
2022/06/14 05:50:59;;;;;;;5.38;3.20;;;;;;;13.64;62.54;97875.00;5049745;28;20057;-65
2022/06/14 05:53:34;;;;;;;8.93;2.60;;;;;;;13.78;63.04;97869.94;5049237;28;20040;-65
2022/06/14 05:56:20;;;;;;;8.43;3.10;;;;;;;14.02;62.24;97868.72;5049295;28;20071;-65
2022/06/14 05:59:06;;;;;;;6.72;2.92;;;;;;;14.22;61.57;97875.41;5048955;28;20091;-65
2022/06/14 06:01:45;;;;;;;7.22;3.05;;;;;;;14.31;61.33;97877.34;5049396;28;20523;-65
2022/06/14 06:04:34;;;;;;;8.13;3.33;;;;;;;14.50;61.86;97881.53;5048554;28;20147;-65
2022/06/14 06:07:09;;;;;;;5.28;2.40;;;;;;;14.57;62.26;97884.84;5064524;28;20047;-65
2022/06/14 06:09:42;;;;;;;7.63;2.60;;;;;;;14.67;61.54;97881.34;5069004;28;20044;-65
2022/06/14 06:12:18;;;;;;;8.77;3.05;;;;;;;14.81;61.84;97879.78;5068828;28;20055;-65
2022/06/14 06:14:55;;;;;;;8.25;2.83;;;;;;;14.83;61.34;97874.06;5069319;28;20393;-65
2022/06/14 06:17:34;;;;;;;7.30;2.70;;;;;;;14.90;60.55;97871.91;5068224;28;20044;-66
2022/06/14 06:20:09;;;;;;;6.18;2.63;;;;;;;15.01;60.60;97877.38;5069109;28;20468;-65
2022/06/14 06:22:44;;;;;;;5.93;2.78;;;;;;;15.10;60.60;97866.78;5068055;28;20518;-65
2022/06/14 06:25:36;;;;;;;5.15;2.17;;;;;;;15.24;59.86;97862.44;5068504;28;20094;-65
2022/06/14 06:28:11;;;;;;;;;;;;;;;15.29;59.85;97870.63;5068744;28;20416;-65
2022/06/14 06:30:40;;;;;;;6.18;2.97;;;;;;;15.34;61.88;97865.16;5076859;28;19920;-65
2022/06/14 06:33:14;;;;;;;8.85;3.08;;;;;;;15.43;59.84;97870.91;5087583;28;20071;-65
2022/06/14 06:35:55;;;;;;;6.55;3.25;;;;;;;15.49;58.81;97877.19;5084248;28;20040;-65
2022/06/14 06:38:24;;;;;;;7.90;3.00;;;;;;;15.61;60.13;97866.00;5068327;28;20048;-66
2022/06/14 06:43:49;;;;;;;8.10;3.10;;;;;;;15.82;58.87;97869.53;5068637;28;20490;-65
2022/06/14 06:46:18;;;;;;;9.60;3.47;;;;;;;15.89;59.00;97873.91;5067931;28;20037;-65
2022/06/14 06:48:54;;;;;;;13.30;3.60;;;;;;;16.02;59.11;97867.91;5068391;28;20052;-65
2022/06/14 06:51:29;;;;;;;13.90;3.65;;;;;;;16.13;59.33;97874.19;5067815;28;20051;-65
2022/06/14 06:54:20;;;;;;;9.35;3.10;;;;;;;16.18;57.29;97870.63;5068603;28;20041;-65
2022/06/14 06:56:52;;;;;;;6.67;3.20;;;;;;;16.34;57.24;97861.31;5067935;28;20427;-65
2022/06/14 06:59:27;;;;;;;7.00;3.35;;;;;;;16.41;56.42;97869.22;5067854;28;20557;-65
2022/06/14 07:01:59;;;;;;;8.05;3.50;;;;;;;16.53;57.11;97866.16;5066858;28;20431;-65
2022/06/14 07:07:22;;;;;;;13.88;3.80;;;;;;;16.44;55.40;97867.84;5067408;28;20036;-65
2022/06/14 07:09:55;;;;;;;8.82;3.40;;;;;;;16.61;55.36;97862.00;5067637;28;20512;-65
2022/06/14 07:12:35;;;;;;;9.40;3.58;;;;;;;16.68;54.04;97862.53;5067796;28;20044;-65
2022/06/14 07:15:09;;;;;;;9.88;4.07;;;;;;;16.80;54.78;97872.34;5067774;28;20501;-65
2022/06/14 07:17:47;;;;;;;10.20;3.80;;;;;;;17.01;54.16;97871.13;5067177;28;20441;-65
2022/06/14 07:20:32;;;;;;;10.57;3.42;;;;;;;17.20;54.30;97866.94;5067027;28;20044;-65
2022/06/14 07:23:06;;;;;;;6.70;3.60;;;;;;;17.23;53.06;97869.13;5067762;28;20052;-65
2022/06/14 07:26:31;;;;;;;9.35;3.70;;;;;;;17.27;52.02;97862.81;5067610;28;20040;-65
2022/06/14 07:29:07;;;;;;;9.48;3.78;;;;;;;17.48;52.24;97865.41;5058167;28;20048;-65
2022/06/14 07:31:40;;;;;;;9.73;4.03;;;;;;;17.67;51.59;97870.19;5083140;28;20389;-65
2022/06/14 07:34:10;;;;;;;7.65;3.80;;;;;;;17.72;51.32;97869.31;5088088;28;20040;-65
2022/06/14 07:36:55;;;;;;;9.98;3.67;;;;;;;17.80;51.18;97868.72;5074476;28;20036;-65
2022/06/14 07:39:28;;;;;;;7.03;3.03;;;;;;;17.81;50.15;97876.63;5067231;28;20056;-65
2022/06/14 07:42:05;;;;;;;9.13;3.78;;;;;;;17.96;51.18;97871.28;5066765;28;20340;-65
2022/06/14 07:44:45;;;;;;;10.55;3.97;;;;;;;17.99;51.49;97868.78;5067060;28;20090;-65
2022/06/14 07:47:18;;;;;;;12.30;4.20;;;;;;;17.98;51.18;97869.91;5067215;28;20041;-65
2022/06/14 07:50:12;;;;;;;7.72;3.60;;;;;;;18.07;51.43;97862.69;5067053;28;20131;-64
2022/06/14 07:52:45;;;;;;;13.98;3.83;;;;;;;18.16;50.46;97862.06;5067006;28;20511;-65
2022/06/14 07:55:18;;;;;;;7.60;3.50;;;;;;;18.24;50.67;97866.94;5066345;28;20112;-65
2022/06/14 07:57:47;;;;;;;10.73;4.00;;;;;;;18.38;50.12;97866.22;5066699;28;20098;-65
2022/06/14 08:03:31;;;;;;;12.45;4.03;;;;;;;18.45;50.50;97862.06;5067338;28;20549;-65
2022/06/14 08:06:03;;;;;;;10.82;3.85;;;;;;;18.62;47.16;97862.69;5066599;28;20134;-65
2022/06/14 08:08:33;;;;;;;;;;;;;;;18.63;48.12;97867.88;5067345;28;20045;-65
2022/06/14 08:11:27;;;;;;;13.90;4.07;;;;;;;18.77;49.36;97862.50;5066491;28;19947;-65
2022/06/14 08:14:02;;;;;;;8.05;3.53;;;;;;;18.72;49.19;97852.41;5066199;28;20388;-65
2022/06/14 08:16:29;;;;;;;11.30;4.00;;;;;;;18.71;48.24;97855.44;5066577;28;20496;-65
2022/06/14 08:19:19;;;;;;;13.88;4.43;;;;;;;18.76;48.21;97852.63;5066801;28;20106;-65
2022/06/14 08:21:51;;;;;;;7.90;3.63;;;;;;;18.84;47.15;97854.69;5066240;28;20394;-65
2022/06/14 08:24:20;;;;;;;;;;;;;;;18.72;48.37;97855.13;5067791;28;20067;-65
2022/06/14 08:27:01;;;;;;;7.20;3.17;;;;;;;18.88;48.64;97854.13;5066883;28;19974;-66
2022/06/14 08:29:46;;;;;;;8.23;3.80;;;;;;;18.94;49.32;97856.50;5066067;28;20119;-65
2022/06/14 08:32:25;;;;;;;11.23;3.60;;;;;;;18.93;48.54;97862.28;5047005;28;20062;-65
2022/06/14 08:35:02;;;;;;;7.65;3.40;;;;;;;19.00;48.94;97856.41;5046219;28;20091;-65
2022/06/14 08:37:38;;;;;;;8.32;3.30;;;;;;;18.99;47.81;97852.88;5065586;28;20044;-65
2022/06/14 08:40:45;;;;;;;7.70;3.33;;;;;;;19.14;47.65;97854.63;5066243;28;20036;-65
2022/06/14 08:43:19;;;;;;;9.35;3.80;;;;;;;19.24;48.23;97857.19;5066326;28;20037;-65
2022/06/14 08:45:55;;;;;;;7.72;3.65;;;;;;;19.42;48.96;97851.19;5066111;28;20435;-65
2022/06/14 08:48:25;;;;;;;12.82;4.43;;;;;;;19.44;48.80;97848.94;5066431;28;20128;-65
2022/06/14 08:51:11;;;;;;;8.95;4.22;;;;;;;19.53;49.08;97849.09;5065491;28;20049;-66
2022/06/14 08:53:50;;;;;;;8.60;3.60;;;;;;;19.57;47.43;97847.38;5066739;28;20045;-65
2022/06/14 08:56:40;;;;;;;9.30;3.80;;;;;;;19.55;46.58;97847.69;5066698;28;20044;-65
2022/06/14 08:59:26;;;;;;;9.43;3.65;;;;;;;19.53;47.02;97843.59;5066931;28;20040;-65
2022/06/14 09:02:01;;;;;;;7.80;3.40;;;;;;;19.51;47.17;97835.66;5063951;28;20538;-65
2022/06/14 09:04:49;;;;;;;7.95;3.58;;;;;;;19.76;46.92;97834.41;5066858;28;20098;-65
2022/06/14 09:07:24;;;;;;;11.13;3.25;;;;;;;19.78;45.92;97838.81;5059152;28;20037;-65
2022/06/14 09:10:12;;;;;;;7.78;4.07;;;;;;;19.79;46.09;97827.50;5067194;28;20558;-65
2022/06/14 09:13:17;;;;;;;8.63;4.03;;;;;;;19.81;46.01;97830.78;5068235;28;20048;-65
2022/06/14 09:16:11;;;;;;;11.27;3.75;;;;;;;19.78;45.38;97823.13;5068118;28;20048;-64
2022/06/14 09:18:56;;;;;;;9.20;4.05;;;;;;;19.90;46.31;97822.63;5070186;28;20043;-65
2022/06/14 09:22:02;;;;;;;8.52;3.13;;;;;;;20.00;45.53;97830.72;5069619;28;20055;-65
2022/06/14 09:25:03;;;;;;;9.07;3.63;;;;;;;20.25;44.85;97816.81;5068528;28;20053;-65
2022/06/14 09:27:38;;;;;;;8.27;3.58;;;;;;;20.32;44.48;97824.66;5068814;28;20048;-65
2022/06/14 09:30:41;;;;;;;7.07;3.25;;;;;;;20.33;43.84;97818.00;5073540;28;20036;-65
2022/06/14 09:33:15;;;;;;;6.18;3.17;;;;;;;20.34;45.03;97814.97;5090039;28;20051;-65
2022/06/14 09:35:44;;;;;;;7.43;2.80;;;;;;;20.45;43.83;97818.31;5085343;28;20275;-65
2022/06/14 09:38:29;;;;;;;10.20;3.30;;;;;;;20.32;42.61;97813.66;5069408;28;20526;-65
2022/06/14 09:41:02;;;;;;;8.10;4.25;;;;;;;20.41;42.95;97809.06;5069433;28;20048;-65
2022/06/14 09:43:55;;;;;;;12.40;3.58;;;;;;;20.53;43.15;97817.59;5069236;28;20072;-65
2022/06/14 09:46:43;;;;;;;4.97;2.70;;;;;;;20.54;42.10;97812.94;5069275;28;20059;-65
2022/06/14 09:49:21;;;;;;;11.07;3.58;;;;;;;20.67;42.54;97816.78;5068709;28;20044;-65
2022/06/14 09:52:03;;;;;;;15.48;4.80;;;;;;;20.76;42.32;97805.88;5069571;28;20525;-65
2022/06/14 09:55:24;;;;;;;9.85;3.38;;;;;;;20.67;41.88;97803.84;5069224;28;20520;-65
2022/06/14 09:58:17;;;;;;;7.57;2.95;;;;;;;20.47;41.87;97783.09;5066404;28;20052;-65
2022/06/14 10:01:10;;;;;;;7.53;2.47;;;;;;;20.63;41.98;97786.31;5068399;28;20048;-65
2022/06/14 10:03:46;;;;;;;6.47;3.13;;;;;;;20.66;40.93;97790.38;5069207;28;20043;-65
2022/06/14 10:06:48;;;;;;;6.63;2.90;;;;;;;20.71;40.81;97793.03;5068676;28;20032;-65
2022/06/14 10:09:35;;;;;;;7.43;3.38;;;;;;;20.87;40.88;97793.56;5069567;28;20044;-65
2022/06/14 10:12:05;;;;;;;6.22;2.90;;;;;;;20.88;41.07;97784.16;5068362;28;20090;-65
2022/06/14 10:15:01;;;;;;;6.40;2.70;;;;;;;20.95;41.49;97789.25;5069376;28;20048;-65
2022/06/14 10:17:38;;;;;;;6.05;3.33;;;;;;;21.04;39.81;97789.28;5068897;28;20062;-65
2022/06/14 10:20:32;;;;;;;5.32;2.45;;;;;;;20.95;40.32;97791.16;5068518;28;20514;-65
2022/06/14 10:23:18;;;;;;;8.90;3.08;;;;;;;20.99;40.53;97792.16;5068913;28;20048;-65
2022/06/14 10:28:58;;;;;;;;;;;;;;;20.79;40.51;97783.25;5068994;28;20450;-65
2022/06/14 10:32:08;;;;;;;5.28;2.97;;;;;;;21.04;42.06;97778.28;5083658;28;19927;-65
2022/06/14 10:35:13;;;;;;;6.97;2.88;;;;;;;21.42;40.37;97777.13;5088306;28;20457;-65
2022/06/14 10:38:05;;;;;;;6.65;2.75;;;;;;;21.67;39.48;97777.59;5048465;28;20049;-65
2022/06/14 10:40:53;;;;;;;9.90;3.03;;;;;;;21.50;40.00;97779.13;5047476;28;20489;-65
2022/06/14 10:43:47;;;;;;;7.05;3.17;;;;;;;21.50;39.35;97776.38;5048496;28;20099;-65
2022/06/14 10:46:33;;;;;;;5.45;2.63;;;;;;;21.43;38.18;97776.81;5048061;28;20488;-65
2022/06/14 10:49:14;;;;;;;9.63;3.10;;;;;;;21.54;37.84;97771.03;5048423;28;20045;-66
2022/06/14 10:51:58;;;;;;;;;;;;;;;21.55;37.61;97773.47;5048451;28;20045;-66
2022/06/14 10:54:28;;;;;;;8.48;3.15;;;;;;;21.76;38.78;97767.47;5048359;28;20305;-65
2022/06/14 10:57:05;;;;;;;11.50;3.35;;;;;;;21.93;39.16;97769.47;5048203;28;20068;-65
2022/06/14 10:59:31;;;;;;;9.20;2.67;;;;;;;22.00;38.87;97757.19;5047408;28;20094;-65
2022/06/14 11:02:30;;;;;;;8.88;2.63;;;;;;;22.03;39.50;97748.25;5047974;28;20512;-65
2022/06/14 11:05:11;;;;;;;7.22;2.72;;;;;;;22.18;38.42;97753.34;5048057;28;20479;-66
2022/06/14 11:08:33;;;;;;;7.93;3.03;;;;;;;22.20;38.39;97753.88;5048007;28;20153;-65
2022/06/14 11:11:23;;;;;;;6.32;3.17;;;;;;;22.34;37.25;97755.69;5045610;28;20576;-65
2022/06/14 11:14:13;;;;;;;7.38;3.13;;;;;;;22.62;37.35;97755.44;5048197;28;20061;-66
2022/06/14 11:17:18;;;;;;;7.97;3.13;;;;;;;22.60;37.56;97743.91;5047269;28;20044;-65
2022/06/14 11:19:51;;;;;;;7.75;2.80;;;;;;;22.68;36.97;97745.88;5047119;28;20033;-66
2022/06/14 11:22:22;;;;;;;12.40;3.10;;;;;;;22.78;36.23;97746.69;5047609;28;20052;-66
2022/06/14 11:24:59;;;;;;;7.47;2.83;;;;;;;22.74;37.01;97736.28;5047655;28;20041;-65
2022/06/14 11:27:32;;;;;;;6.20;2.80;;;;;;;22.72;36.75;97740.50;5047261;28;20037;-65
2022/06/14 11:30:18;;;;;;;7.30;3.22;;;;;;;22.72;35.63;97740.50;5053460;28;20032;-65
2022/06/14 11:33:19;;;;;;;5.65;2.63;;;;;;;22.58;35.90;97737.88;5087294;28;20601;-65
2022/06/14 11:36:03;;;;;;;6.82;2.80;;;;;;;22.51;36.08;97737.53;5082599;28;20040;-65
2022/06/14 11:38:32;;;;;;;5.88;2.47;;;;;;;22.63;35.33;97737.75;5066676;28;20051;-65
2022/06/14 11:41:05;;;;;;;6.80;2.35;;;;;;;22.59;34.74;97737.56;5067475;28;20086;-65
2022/06/14 11:43:48;;;;;;;7.80;2.58;;;;;;;22.61;34.65;97728.97;5067713;28;20041;-65
2022/06/14 11:46:26;;;;;;;8.55;2.90;;;;;;;22.36;35.04;97725.81;5067349;28;20098;-65
2022/06/14 11:49:01;;;;;;;6.82;2.58;;;;;;;22.53;35.49;97724.22;5067308;28;20078;-66
2022/06/14 11:52:26;;;;;;;9.15;3.05;;;;;;;22.96;35.63;97725.44;5067176;28;20098;-65
2022/06/14 11:55:23;;;;;;;8.00;3.03;;;;;;;23.08;35.59;97709.00;5044112;28;20305;-66
2022/06/14 11:58:10;;;;;;;7.50;2.60;;;;;;;23.72;33.79;97725.94;5066771;28;20040;-65
2022/06/14 12:01:11;;;;;;;7.07;2.58;;;;;;;23.63;34.06;97714.13;5066622;28;20098;-66
2022/06/14 12:03:56;;;;;;;6.70;2.57;;;;;;;23.77;33.46;97713.91;5067248;28;20115;-66
2022/06/14 12:06:47;;;;;;;7.53;2.60;;;;;;;23.72;34.28;97708.53;5066512;28;20037;-65
2022/06/14 12:09:43;;;;;;;6.03;2.50;;;;;;;24.02;33.47;97703.84;5067198;28;20048;-65
2022/06/14 12:12:21;;;;;;;6.13;3.30;;;;;;;24.16;33.60;97703.66;5066363;28;20405;-66
2022/06/14 12:14:50;;;;;;;12.02;3.20;;;;;;;24.27;33.69;97700.50;5066701;28;20049;-66
2022/06/14 12:17:43;;;;;;;7.20;3.08;;;;;;;24.31;32.26;97700.63;5066419;28;20385;-66
2022/06/14 12:20:16;;;;;;;6.50;2.50;;;;;;;24.33;31.88;97693.63;5066526;28;20049;-65
2022/06/14 12:23:13;;;;;;;5.72;3.20;;;;;;;24.54;33.08;97693.63;5066842;28;20503;-66
2022/06/14 12:29:15;;;;;;;7.78;3.10;;;;;;;24.59;32.21;97689.03;5067019;28;20033;-65
2022/06/14 12:32:00;;;;;;;6.50;2.75;;;;;;;24.39;32.25;97685.91;5081824;28;20044;-65
2022/06/14 12:34:29;;;;;;;6.38;2.90;;;;;;;24.37;32.22;97691.81;5086961;28;20048;-65
2022/06/14 12:37:01;;;;;;;6.55;2.88;;;;;;;24.62;31.72;97688.38;5071896;28;20083;-66
2022/06/14 12:39:32;;;;;;;5.88;2.40;;;;;;;24.91;31.59;97686.72;5066863;28;20094;-65
2022/06/14 12:42:10;;;;;;;7.25;3.13;;;;;;;24.93;31.03;97681.63;5065901;28;20047;-66
2022/06/14 12:44:51;;;;;;;5.32;2.40;;;;;;;24.61;31.15;97672.94;5066916;28;20040;-65
2022/06/14 12:47:54;;;;;;;5.30;2.78;;;;;;;24.98;31.11;97672.31;5065730;28;20408;-65
2022/06/14 12:50:29;;;;;;;5.25;2.40;;;;;;;25.06;30.92;97674.97;5063885;28;20065;-66
2022/06/14 12:53:02;;;;;;;5.53;2.45;;;;;;;25.50;29.67;97659.84;5066878;28;20052;-65
2022/06/14 12:55:52;;;;;;;6.53;2.45;;;;;;;25.64;29.42;97655.94;5066672;28;20408;-66
2022/06/14 12:58:31;;;;;;;5.47;2.50;;;;;;;25.60;29.53;97652.28;5066338;28;20067;-65
2022/06/14 13:01:27;;;;;;;5.47;2.20;;;;;;;26.18;29.35;97651.31;5066105;28;20045;-65